sensor_id;sensor_type;location;lat;lon;timestamp;P1;durP1;ratioP1;P2;durP2;ratioP2
52650;SDS011;38537;47.226;39.702;2022-08-01T00:00:20;3.70;;;3.10;;
52650;SDS011;38537;47.226;39.702;2022-08-01T00:02:47;6.45;;;3.35;;
52650;SDS011;38537;47.226;39.702;2022-08-01T00:05:14;4.03;;;3.60;;
52650;SDS011;38537;47.226;39.702;2022-08-01T00:07:42;6.68;;;3.70;;
52650;SDS011;38537;47.226;39.702;2022-08-01T00:10:10;5.80;;;3.63;;
52650;SDS011;38537;47.226;39.702;2022-08-01T00:12:40;6.43;;;3.60;;
52650;SDS011;38537;47.226;39.702;2022-08-01T00:15:09;9.05;;;3.78;;
52650;SDS011;38537;47.226;39.702;2022-08-01T00:17:38;9.70;;;3.42;;
52650;SDS011;38537;47.226;39.702;2022-08-01T00:20:07;5.45;;;3.42;;
52650;SDS011;38537;47.226;39.702;2022-08-01T00:22:36;7.78;;;3.80;;
52650;SDS011;38537;47.226;39.702;2022-08-01T00:25:04;6.57;;;3.65;;
52650;SDS011;38537;47.226;39.702;2022-08-01T00:27:32;7.38;;;3.58;;
52650;SDS011;38537;47.226;39.702;2022-08-01T00:30:04;6.93;;;3.95;;
52650;SDS011;38537;47.226;39.702;2022-08-01T00:32:43;5.63;;;4.00;;
52650;SDS011;38537;47.226;39.702;2022-08-01T00:35:11;8.45;;;3.90;;
52650;SDS011;38537;47.226;39.702;2022-08-01T00:37:39;9.38;;;3.88;;
52650;SDS011;38537;47.226;39.702;2022-08-01T00:40:06;6.63;;;3.65;;
52650;SDS011;38537;47.226;39.702;2022-08-01T00:42:36;8.32;;;3.72;;
52650;SDS011;38537;47.226;39.702;2022-08-01T00:45:10;5.07;;;4.22;;
52650;SDS011;38537;47.226;39.702;2022-08-01T00:47:38;5.85;;;4.20;;
52650;SDS011;38537;47.226;39.702;2022-08-01T00:50:07;7.70;;;4.13;;
52650;SDS011;38537;47.226;39.702;2022-08-01T00:52:36;4.88;;;4.07;;
52650;SDS011;38537;47.226;39.702;2022-08-01T00:55:04;7.78;;;4.32;;
52650;SDS011;38537;47.226;39.702;2022-08-01T00:57:31;6.63;;;4.10;;
52650;SDS011;38537;47.226;39.702;2022-08-01T01:00:19;8.02;;;4.22;;
52650;SDS011;38537;47.226;39.702;2022-08-01T01:02:53;5.05;;;3.92;;
52650;SDS011;38537;47.226;39.702;2022-08-01T01:05:20;5.95;;;4.22;;
52650;SDS011;38537;47.226;39.702;2022-08-01T01:07:50;5.80;;;4.45;;
52650;SDS011;38537;47.226;39.702;2022-08-01T01:10:28;9.55;;;4.45;;
52650;SDS011;38537;47.226;39.702;2022-08-01T01:18:19;6.32;;;4.45;;
52650;SDS011;38537;47.226;39.702;2022-08-01T01:26:40;7.40;;;4.40;;
52650;SDS011;38537;47.226;39.702;2022-08-01T01:29:31;7.03;;;4.57;;
52650;SDS011;38537;47.226;39.702;2022-08-01T01:32:23;7.35;;;4.28;;
52650;SDS011;38537;47.226;39.702;2022-08-01T01:34:56;10.00;;;4.55;;
52650;SDS011;38537;47.226;39.702;2022-08-01T01:37:28;5.07;;;4.40;;
52650;SDS011;38537;47.226;39.702;2022-08-01T01:39:58;10.68;;;4.78;;
52650;SDS011;38537;47.226;39.702;2022-08-01T01:42:29;8.50;;;4.47;;
52650;SDS011;38537;47.226;39.702;2022-08-01T01:44:58;6.30;;;4.68;;
52650;SDS011;38537;47.226;39.702;2022-08-01T01:47:30;9.00;;;4.60;;
52650;SDS011;38537;47.226;39.702;2022-08-01T01:49:59;9.27;;;5.40;;
52650;SDS011;38537;47.226;39.702;2022-08-01T01:52:29;6.18;;;4.57;;
52650;SDS011;38537;47.226;39.702;2022-08-01T01:54:58;8.82;;;5.18;;
52650;SDS011;38537;47.226;39.702;2022-08-01T01:57:28;8.40;;;4.95;;
52650;SDS011;38537;47.226;39.702;2022-08-01T01:59:57;8.48;;;4.95;;
52650;SDS011;38537;47.226;39.702;2022-08-01T02:02:29;7.45;;;4.78;;
52650;SDS011;38537;47.226;39.702;2022-08-01T02:04:57;6.93;;;5.07;;
52650;SDS011;38537;47.226;39.702;2022-08-01T02:07:25;7.50;;;5.05;;
52650;SDS011;38537;47.226;39.702;2022-08-01T02:09:54;8.35;;;5.10;;
52650;SDS011;38537;47.226;39.702;2022-08-01T02:12:23;7.45;;;4.78;;
52650;SDS011;38537;47.226;39.702;2022-08-01T02:15:11;7.65;;;4.85;;
52650;SDS011;38537;47.226;39.702;2022-08-01T02:17:41;7.97;;;5.75;;
52650;SDS011;38537;47.226;39.702;2022-08-01T02:20:12;13.00;;;5.03;;
52650;SDS011;38537;47.226;39.702;2022-08-01T02:22:41;10.50;;;5.70;;
52650;SDS011;38537;47.226;39.702;2022-08-01T02:25:33;11.55;;;5.78;;
52650;SDS011;38537;47.226;39.702;2022-08-01T02:28:35;5.95;;;5.28;;
52650;SDS011;38537;47.226;39.702;2022-08-01T02:31:06;12.35;;;5.38;;
52650;SDS011;38537;47.226;39.702;2022-08-01T02:33:44;10.40;;;5.55;;
52650;SDS011;38537;47.226;39.702;2022-08-01T02:36:25;13.13;;;5.97;;
52650;SDS011;38537;47.226;39.702;2022-08-01T02:39:00;12.68;;;5.57;;
52650;SDS011;38537;47.226;39.702;2022-08-01T02:41:30;7.47;;;5.43;;
52650;SDS011;38537;47.226;39.702;2022-08-01T02:44:03;7.82;;;5.72;;
52650;SDS011;38537;47.226;39.702;2022-08-01T02:46:43;10.57;;;5.95;;
52650;SDS011;38537;47.226;39.702;2022-08-01T02:49:19;9.23;;;5.93;;
52650;SDS011;38537;47.226;39.702;2022-08-01T02:51:48;11.00;;;5.55;;
52650;SDS011;38537;47.226;39.702;2022-08-01T02:54:18;14.30;;;6.15;;
52650;SDS011;38537;47.226;39.702;2022-08-01T02:56:49;8.10;;;5.90;;
52650;SDS011;38537;47.226;39.702;2022-08-01T02:59:18;8.45;;;5.65;;
52650;SDS011;38537;47.226;39.702;2022-08-01T03:01:53;9.07;;;5.78;;
52650;SDS011;38537;47.226;39.702;2022-08-01T03:04:24;8.43;;;5.53;;
52650;SDS011;38537;47.226;39.702;2022-08-01T03:06:54;9.75;;;5.50;;
52650;SDS011;38537;47.226;39.702;2022-08-01T03:09:25;12.27;;;5.88;;
52650;SDS011;38537;47.226;39.702;2022-08-01T03:11:54;11.38;;;5.70;;
52650;SDS011;38537;47.226;39.702;2022-08-01T03:14:27;9.63;;;5.90;;
52650;SDS011;38537;47.226;39.702;2022-08-01T03:16:57;10.00;;;6.30;;
52650;SDS011;38537;47.226;39.702;2022-08-01T03:19:26;12.43;;;6.18;;
52650;SDS011;38537;47.226;39.702;2022-08-01T03:21:57;9.57;;;6.00;;
52650;SDS011;38537;47.226;39.702;2022-08-01T03:24:25;10.77;;;6.47;;
52650;SDS011;38537;47.226;39.702;2022-08-01T03:26:55;8.30;;;5.90;;
52650;SDS011;38537;47.226;39.702;2022-08-01T03:29:25;6.88;;;6.00;;
52650;SDS011;38537;47.226;39.702;2022-08-01T03:31:56;9.00;;;5.90;;
52650;SDS011;38537;47.226;39.702;2022-08-01T03:34:26;7.85;;;5.90;;
52650;SDS011;38537;47.226;39.702;2022-08-01T03:39:40;8.70;;;5.85;;
52650;SDS011;38537;47.226;39.702;2022-08-01T03:42:20;8.10;;;6.32;;
52650;SDS011;38537;47.226;39.702;2022-08-01T03:44:57;7.80;;;6.57;;
52650;SDS011;38537;47.226;39.702;2022-08-01T03:47:30;7.97;;;6.50;;
52650;SDS011;38537;47.226;39.702;2022-08-01T03:50:09;7.78;;;6.30;;
52650;SDS011;38537;47.226;39.702;2022-08-01T03:52:38;10.07;;;6.55;;
52650;SDS011;38537;47.226;39.702;2022-08-01T03:55:09;9.80;;;6.03;;
52650;SDS011;38537;47.226;39.702;2022-08-01T03:57:38;8.30;;;6.20;;
52650;SDS011;38537;47.226;39.702;2022-08-01T04:00:06;11.73;;;6.72;;
52650;SDS011;38537;47.226;39.702;2022-08-01T04:02:38;11.48;;;6.07;;
52650;SDS011;38537;47.226;39.702;2022-08-01T04:05:06;9.85;;;6.78;;
52650;SDS011;38537;47.226;39.702;2022-08-01T04:07:34;14.75;;;6.60;;
52650;SDS011;38537;47.226;39.702;2022-08-01T04:10:03;9.35;;;6.75;;
52650;SDS011;38537;47.226;39.702;2022-08-01T04:12:31;9.85;;;6.00;;
52650;SDS011;38537;47.226;39.702;2022-08-01T04:14:59;13.63;;;6.32;;
52650;SDS011;38537;47.226;39.702;2022-08-01T04:17:30;8.38;;;6.05;;
52650;SDS011;38537;47.226;39.702;2022-08-01T04:19:57;8.05;;;6.07;;
52650;SDS011;38537;47.226;39.702;2022-08-01T04:22:24;8.07;;;6.13;;
52650;SDS011;38537;47.226;39.702;2022-08-01T04:24:53;9.10;;;6.60;;
52650;SDS011;38537;47.226;39.702;2022-08-01T04:27:26;10.13;;;6.43;;
52650;SDS011;38537;47.226;39.702;2022-08-01T04:30:24;9.10;;;6.35;;
52650;SDS011;38537;47.226;39.702;2022-08-01T04:32:54;8.43;;;5.93;;
52650;SDS011;38537;47.226;39.702;2022-08-01T04:35:24;10.93;;;6.00;;
52650;SDS011;38537;47.226;39.702;2022-08-01T04:38:14;12.52;;;6.97;;
52650;SDS011;38537;47.226;39.702;2022-08-01T04:40:46;7.72;;;6.40;;
52650;SDS011;38537;47.226;39.702;2022-08-01T04:43:13;8.00;;;5.97;;
52650;SDS011;38537;47.226;39.702;2022-08-01T04:45:42;9.88;;;6.22;;
52650;SDS011;38537;47.226;39.702;2022-08-01T04:48:11;8.30;;;6.53;;
52650;SDS011;38537;47.226;39.702;2022-08-01T04:50:42;8.20;;;6.00;;
52650;SDS011;38537;47.226;39.702;2022-08-01T04:53:13;10.55;;;5.88;;
52650;SDS011;38537;47.226;39.702;2022-08-01T04:55:45;11.07;;;6.18;;
52650;SDS011;38537;47.226;39.702;2022-08-01T04:58:16;10.88;;;6.45;;
52650;SDS011;38537;47.226;39.702;2022-08-01T05:00:47;10.95;;;6.45;;
52650;SDS011;38537;47.226;39.702;2022-08-01T05:03:15;10.07;;;6.55;;
52650;SDS011;38537;47.226;39.702;2022-08-01T05:05:42;8.45;;;6.10;;
52650;SDS011;38537;47.226;39.702;2022-08-01T05:08:09;9.40;;;5.88;;
52650;SDS011;38537;47.226;39.702;2022-08-01T05:10:36;8.75;;;5.90;;
52650;SDS011;38537;47.226;39.702;2022-08-01T05:13:04;8.93;;;6.00;;
52650;SDS011;38537;47.226;39.702;2022-08-01T05:15:36;9.80;;;6.50;;
52650;SDS011;38537;47.226;39.702;2022-08-01T05:18:04;13.38;;;6.90;;
52650;SDS011;38537;47.226;39.702;2022-08-01T05:20:34;10.35;;;6.13;;
52650;SDS011;38537;47.226;39.702;2022-08-01T05:23:01;7.68;;;6.10;;
52650;SDS011;38537;47.226;39.702;2022-08-01T05:25:29;9.88;;;6.47;;
52650;SDS011;38537;47.226;39.702;2022-08-01T05:28:16;7.20;;;6.47;;
52650;SDS011;38537;47.226;39.702;2022-08-01T05:30:45;9.65;;;6.50;;
52650;SDS011;38537;47.226;39.702;2022-08-01T05:33:12;9.85;;;6.50;;
52650;SDS011;38537;47.226;39.702;2022-08-01T05:35:39;8.77;;;6.45;;
52650;SDS011;38537;47.226;39.702;2022-08-01T05:38:15;11.70;;;6.18;;
52650;SDS011;38537;47.226;39.702;2022-08-01T05:40:42;10.45;;;6.75;;
52650;SDS011;38537;47.226;39.702;2022-08-01T05:43:10;7.60;;;6.80;;
52650;SDS011;38537;47.226;39.702;2022-08-01T05:45:37;9.05;;;6.20;;
52650;SDS011;38537;47.226;39.702;2022-08-01T05:48:05;9.50;;;6.43;;
52650;SDS011;38537;47.226;39.702;2022-08-01T05:50:32;8.50;;;6.50;;
52650;SDS011;38537;47.226;39.702;2022-08-01T05:53:00;9.65;;;6.35;;
52650;SDS011;38537;47.226;39.702;2022-08-01T05:55:28;9.90;;;6.38;;
52650;SDS011;38537;47.226;39.702;2022-08-01T05:57:55;9.30;;;5.88;;
52650;SDS011;38537;47.226;39.702;2022-08-01T06:00:23;12.82;;;6.32;;
52650;SDS011;38537;47.226;39.702;2022-08-01T06:02:51;8.50;;;6.57;;
52650;SDS011;38537;47.226;39.702;2022-08-01T06:05:18;9.65;;;6.50;;
52650;SDS011;38537;47.226;39.702;2022-08-01T06:07:45;11.05;;;6.55;;
52650;SDS011;38537;47.226;39.702;2022-08-01T06:10:13;7.00;;;6.18;;
52650;SDS011;38537;47.226;39.702;2022-08-01T06:12:40;8.32;;;6.63;;
52650;SDS011;38537;47.226;39.702;2022-08-01T06:15:08;16.20;;;6.40;;
52650;SDS011;38537;47.226;39.702;2022-08-01T06:17:35;12.00;;;6.57;;
52650;SDS011;38537;47.226;39.702;2022-08-01T06:20:03;15.88;;;7.93;;
52650;SDS011;38537;47.226;39.702;2022-08-01T06:22:32;13.82;;;6.82;;
52650;SDS011;38537;47.226;39.702;2022-08-01T06:25:00;8.35;;;6.80;;
52650;SDS011;38537;47.226;39.702;2022-08-01T06:27:28;7.95;;;6.32;;
52650;SDS011;38537;47.226;39.702;2022-08-01T06:29:56;15.35;;;6.45;;
52650;SDS011;38537;47.226;39.702;2022-08-01T06:32:23;10.70;;;6.47;;
52650;SDS011;38537;47.226;39.702;2022-08-01T06:34:53;9.63;;;6.15;;
52650;SDS011;38537;47.226;39.702;2022-08-01T06:37:22;7.57;;;6.38;;
52650;SDS011;38537;47.226;39.702;2022-08-01T06:39:49;10.57;;;6.63;;
52650;SDS011;38537;47.226;39.702;2022-08-01T06:42:17;7.38;;;5.85;;
52650;SDS011;38537;47.226;39.702;2022-08-01T06:44:45;8.20;;;6.13;;
52650;SDS011;38537;47.226;39.702;2022-08-01T06:47:12;9.40;;;6.10;;
52650;SDS011;38537;47.226;39.702;2022-08-01T06:49:39;8.60;;;6.13;;
52650;SDS011;38537;47.226;39.702;2022-08-01T06:52:06;9.48;;;6.00;;
52650;SDS011;38537;47.226;39.702;2022-08-01T06:54:35;9.10;;;6.00;;
52650;SDS011;38537;47.226;39.702;2022-08-01T06:57:05;8.93;;;6.35;;
52650;SDS011;38537;47.226;39.702;2022-08-01T06:59:33;9.15;;;6.13;;
52650;SDS011;38537;47.226;39.702;2022-08-01T07:02:01;10.68;;;5.88;;
52650;SDS011;38537;47.226;39.702;2022-08-01T07:04:30;11.55;;;6.10;;
52650;SDS011;38537;47.226;39.702;2022-08-01T07:06:59;7.68;;;5.90;;
52650;SDS011;38537;47.226;39.702;2022-08-01T07:09:26;8.32;;;5.70;;
52650;SDS011;38537;47.226;39.702;2022-08-01T07:11:54;10.10;;;6.07;;
52650;SDS011;38537;47.226;39.702;2022-08-01T07:14:22;7.80;;;6.05;;
52650;SDS011;38537;47.226;39.702;2022-08-01T07:16:50;10.20;;;5.97;;
52650;SDS011;38537;47.226;39.702;2022-08-01T07:19:18;11.10;;;6.10;;
52650;SDS011;38537;47.226;39.702;2022-08-01T07:21:45;7.57;;;5.63;;
52650;SDS011;38537;47.226;39.702;2022-08-01T07:24:16;5.88;;;5.28;;
52650;SDS011;38537;47.226;39.702;2022-08-01T07:26:47;6.55;;;5.95;;
52650;SDS011;38537;47.226;39.702;2022-08-01T07:31:51;8.27;;;6.15;;
52650;SDS011;38537;47.226;39.702;2022-08-01T07:34:20;9.63;;;6.05;;
52650;SDS011;38537;47.226;39.702;2022-08-01T07:36:48;6.35;;;5.75;;
52650;SDS011;38537;47.226;39.702;2022-08-01T07:39:16;7.68;;;5.65;;
52650;SDS011;38537;47.226;39.702;2022-08-01T07:41:44;8.75;;;5.40;;
52650;SDS011;38537;47.226;39.702;2022-08-01T07:44:31;6.70;;;5.75;;
52650;SDS011;38537;47.226;39.702;2022-08-01T07:46:59;12.90;;;6.13;;
52650;SDS011;38537;47.226;39.702;2022-08-01T07:49:26;6.90;;;5.63;;
52650;SDS011;38537;47.226;39.702;2022-08-01T07:51:54;11.63;;;5.72;;
52650;SDS011;38537;47.226;39.702;2022-08-01T07:54:33;8.85;;;5.40;;
52650;SDS011;38537;47.226;39.702;2022-08-01T07:57:01;7.65;;;5.47;;
52650;SDS011;38537;47.226;39.702;2022-08-01T07:59:29;7.80;;;5.90;;
52650;SDS011;38537;47.226;39.702;2022-08-01T08:01:57;9.07;;;5.35;;
52650;SDS011;38537;47.226;39.702;2022-08-01T08:04:25;7.30;;;5.20;;
52650;SDS011;38537;47.226;39.702;2022-08-01T08:06:54;7.63;;;5.20;;
52650;SDS011;38537;47.226;39.702;2022-08-01T08:09:21;5.70;;;5.10;;
52650;SDS011;38537;47.226;39.702;2022-08-01T08:11:49;7.68;;;4.88;;
52650;SDS011;38537;47.226;39.702;2022-08-01T08:14:17;6.20;;;5.32;;
52650;SDS011;38537;47.226;39.702;2022-08-01T08:16:45;7.43;;;5.25;;
52650;SDS011;38537;47.226;39.702;2022-08-01T08:19:12;6.78;;;4.95;;
52650;SDS011;38537;47.226;39.702;2022-08-01T08:21:40;12.40;;;5.38;;
52650;SDS011;38537;47.226;39.702;2022-08-01T08:24:08;9.40;;;4.88;;
52650;SDS011;38537;47.226;39.702;2022-08-01T08:26:59;8.85;;;5.32;;
52650;SDS011;38537;47.226;39.702;2022-08-01T08:29:28;5.82;;;4.68;;
52650;SDS011;38537;47.226;39.702;2022-08-01T08:31:57;5.47;;;4.65;;
52650;SDS011;38537;47.226;39.702;2022-08-01T08:34:26;5.40;;;4.75;;
52650;SDS011;38537;47.226;39.702;2022-08-01T08:36:54;7.28;;;4.60;;
52650;SDS011;38537;47.226;39.702;2022-08-01T08:39:24;8.10;;;4.78;;
52650;SDS011;38537;47.226;39.702;2022-08-01T08:41:52;5.90;;;4.60;;
52650;SDS011;38537;47.226;39.702;2022-08-01T08:44:19;6.22;;;4.60;;
52650;SDS011;38537;47.226;39.702;2022-08-01T08:46:48;7.57;;;5.38;;
52650;SDS011;38537;47.226;39.702;2022-08-01T08:49:23;7.55;;;5.38;;
52650;SDS011;38537;47.226;39.702;2022-08-01T08:52:02;6.05;;;4.70;;
52650;SDS011;38537;47.226;39.702;2022-08-01T08:54:31;5.22;;;4.72;;
52650;SDS011;38537;47.226;39.702;2022-08-01T08:57:00;8.52;;;5.13;;
52650;SDS011;38537;47.226;39.702;2022-08-01T08:59:28;6.22;;;4.95;;
52650;SDS011;38537;47.226;39.702;2022-08-01T09:01:57;7.88;;;4.78;;
52650;SDS011;38537;47.226;39.702;2022-08-01T09:04:25;6.90;;;4.80;;
52650;SDS011;38537;47.226;39.702;2022-08-01T09:06:53;8.45;;;4.90;;
52650;SDS011;38537;47.226;39.702;2022-08-01T09:09:22;8.35;;;5.35;;
52650;SDS011;38537;47.226;39.702;2022-08-01T09:11:50;6.68;;;4.53;;
52650;SDS011;38537;47.226;39.702;2022-08-01T09:14:23;10.10;;;4.32;;
52650;SDS011;38537;47.226;39.702;2022-08-01T09:17:01;5.90;;;4.75;;
52650;SDS011;38537;47.226;39.702;2022-08-01T09:19:43;5.93;;;4.30;;
52650;SDS011;38537;47.226;39.702;2022-08-01T09:22:16;5.50;;;4.38;;
52650;SDS011;38537;47.226;39.702;2022-08-01T09:27:30;7.90;;;4.03;;
52650;SDS011;38537;47.226;39.702;2022-08-01T09:30:15;4.85;;;4.35;;
52650;SDS011;38537;47.226;39.702;2022-08-01T09:35:37;6.35;;;3.85;;
52650;SDS011;38537;47.226;39.702;2022-08-01T09:38:14;5.93;;;3.67;;
52650;SDS011;38537;47.226;39.702;2022-08-01T09:40:58;4.45;;;3.80;;
52650;SDS011;38537;47.226;39.702;2022-08-01T09:43:28;4.88;;;3.35;;
52650;SDS011;38537;47.226;39.702;2022-08-01T09:45:58;4.45;;;3.72;;
52650;SDS011;38537;47.226;39.702;2022-08-01T09:48:26;4.40;;;3.50;;
52650;SDS011;38537;47.226;39.702;2022-08-01T09:50:56;5.25;;;3.45;;
52650;SDS011;38537;47.226;39.702;2022-08-01T09:53:40;4.10;;;3.25;;
52650;SDS011;38537;47.226;39.702;2022-08-01T09:56:17;4.57;;;3.60;;
52650;SDS011;38537;47.226;39.702;2022-08-01T09:58:50;4.90;;;3.50;;
52650;SDS011;38537;47.226;39.702;2022-08-01T10:01:25;3.55;;;3.08;;
52650;SDS011;38537;47.226;39.702;2022-08-01T10:04:07;7.82;;;3.80;;
52650;SDS011;38537;47.226;39.702;2022-08-01T10:06:45;5.63;;;3.60;;
52650;SDS011;38537;47.226;39.702;2022-08-01T10:09:22;4.38;;;3.78;;
52650;SDS011;38537;47.226;39.702;2022-08-01T10:12:07;6.15;;;4.20;;
52650;SDS011;38537;47.226;39.702;2022-08-01T10:14:47;6.95;;;4.03;;
52650;SDS011;38537;47.226;39.702;2022-08-01T10:17:24;5.25;;;4.10;;
52650;SDS011;38537;47.226;39.702;2022-08-01T10:20:12;5.03;;;3.97;;
52650;SDS011;38537;47.226;39.702;2022-08-01T10:22:57;5.90;;;3.70;;
52650;SDS011;38537;47.226;39.702;2022-08-01T10:25:35;6.18;;;4.65;;
52650;SDS011;38537;47.226;39.702;2022-08-01T10:28:16;6.43;;;4.40;;
52650;SDS011;38537;47.226;39.702;2022-08-01T10:30:50;4.05;;;3.67;;
52650;SDS011;38537;47.226;39.702;2022-08-01T10:33:21;5.72;;;4.03;;
52650;SDS011;38537;47.226;39.702;2022-08-01T10:36:10;4.38;;;3.88;;
52650;SDS011;38537;47.226;39.702;2022-08-01T10:38:37;5.57;;;3.60;;
52650;SDS011;38537;47.226;39.702;2022-08-01T10:41:06;7.80;;;4.47;;
52650;SDS011;38537;47.226;39.702;2022-08-01T10:43:35;6.05;;;4.32;;
52650;SDS011;38537;47.226;39.702;2022-08-01T10:46:03;5.10;;;4.43;;
52650;SDS011;38537;47.226;39.702;2022-08-01T10:48:39;8.90;;;4.18;;
52650;SDS011;38537;47.226;39.702;2022-08-01T10:51:13;6.28;;;4.38;;
52650;SDS011;38537;47.226;39.702;2022-08-01T10:53:49;9.90;;;4.63;;
52650;SDS011;38537;47.226;39.702;2022-08-01T10:56:21;8.02;;;4.97;;
52650;SDS011;38537;47.226;39.702;2022-08-01T10:59:02;11.77;;;5.00;;
52650;SDS011;38537;47.226;39.702;2022-08-01T11:01:37;8.55;;;4.80;;
52650;SDS011;38537;47.226;39.702;2022-08-01T11:04:14;8.68;;;4.90;;
52650;SDS011;38537;47.226;39.702;2022-08-01T11:09:39;9.52;;;5.18;;
52650;SDS011;38537;47.226;39.702;2022-08-01T11:12:17;9.02;;;5.00;;
52650;SDS011;38537;47.226;39.702;2022-08-01T11:20:15;8.90;;;4.95;;
52650;SDS011;38537;47.226;39.702;2022-08-01T11:28:25;6.40;;;4.90;;
52650;SDS011;38537;47.226;39.702;2022-08-01T11:38:42;7.68;;;4.97;;
52650;SDS011;38537;47.226;39.702;2022-08-01T11:41:14;6.43;;;4.90;;
52650;SDS011;38537;47.226;39.702;2022-08-01T11:44:05;8.68;;;5.38;;
52650;SDS011;38537;47.226;39.702;2022-08-01T11:46:53;7.38;;;5.00;;
52650;SDS011;38537;47.226;39.702;2022-08-01T11:52:05;8.13;;;5.32;;
52650;SDS011;38537;47.226;39.702;2022-08-01T11:54:42;9.88;;;5.20;;
52650;SDS011;38537;47.226;39.702;2022-08-01T11:57:19;9.90;;;6.25;;
52650;SDS011;38537;47.226;39.702;2022-08-01T11:59:50;6.45;;;5.28;;
52650;SDS011;38537;47.226;39.702;2022-08-01T12:02:38;8.80;;;5.65;;
52650;SDS011;38537;47.226;39.702;2022-08-01T12:05:11;16.15;;;5.97;;
52650;SDS011;38537;47.226;39.702;2022-08-01T12:07:42;8.98;;;5.90;;
52650;SDS011;38537;47.226;39.702;2022-08-01T12:10:19;9.85;;;6.18;;
52650;SDS011;38537;47.226;39.702;2022-08-01T12:12:49;7.15;;;5.53;;
52650;SDS011;38537;47.226;39.702;2022-08-01T12:15:19;6.88;;;5.93;;
52650;SDS011;38537;47.226;39.702;2022-08-01T12:17:49;6.40;;;5.22;;
52650;SDS011;38537;47.226;39.702;2022-08-01T12:20:46;9.45;;;6.05;;
52650;SDS011;38537;47.226;39.702;2022-08-01T12:23:22;12.25;;;5.65;;
52650;SDS011;38537;47.226;39.702;2022-08-01T12:25:51;13.82;;;6.20;;
52650;SDS011;38537;47.226;39.702;2022-08-01T12:28:19;11.73;;;6.50;;
52650;SDS011;38537;47.226;39.702;2022-08-01T12:30:47;12.55;;;6.43;;
52650;SDS011;38537;47.226;39.702;2022-08-01T12:33:16;11.82;;;6.78;;
52650;SDS011;38537;47.226;39.702;2022-08-01T12:35:45;8.07;;;5.95;;
52650;SDS011;38537;47.226;39.702;2022-08-01T12:38:14;9.45;;;6.38;;
52650;SDS011;38537;47.226;39.702;2022-08-01T12:40:44;7.38;;;6.00;;
52650;SDS011;38537;47.226;39.702;2022-08-01T12:43:20;10.68;;;7.55;;
52650;SDS011;38537;47.226;39.702;2022-08-01T12:45:55;10.90;;;7.28;;
52650;SDS011;38537;47.226;39.702;2022-08-01T12:48:26;12.57;;;7.20;;
52650;SDS011;38537;47.226;39.702;2022-08-01T12:50:56;9.30;;;7.22;;
52650;SDS011;38537;47.226;39.702;2022-08-01T12:53:27;9.02;;;7.15;;
52650;SDS011;38537;47.226;39.702;2022-08-01T12:56:07;7.93;;;7.05;;
52650;SDS011;38537;47.226;39.702;2022-08-01T12:58:39;12.15;;;7.32;;
52650;SDS011;38537;47.226;39.702;2022-08-01T13:01:07;14.95;;;7.75;;
52650;SDS011;38537;47.226;39.702;2022-08-01T13:03:37;10.52;;;7.20;;
52650;SDS011;38537;47.226;39.702;2022-08-01T13:06:11;10.32;;;7.30;;
52650;SDS011;38537;47.226;39.702;2022-08-01T13:08:42;9.93;;;6.95;;
52650;SDS011;38537;47.226;39.702;2022-08-01T13:11:11;8.75;;;7.55;;
52650;SDS011;38537;47.226;39.702;2022-08-01T13:13:48;9.43;;;7.30;;
52650;SDS011;38537;47.226;39.702;2022-08-01T13:16:17;11.23;;;7.23;;
52650;SDS011;38537;47.226;39.702;2022-08-01T13:19:04;9.45;;;7.43;;
52650;SDS011;38537;47.226;39.702;2022-08-01T13:21:33;10.85;;;7.53;;
52650;SDS011;38537;47.226;39.702;2022-08-01T13:24:25;8.60;;;7.32;;
52650;SDS011;38537;47.226;39.702;2022-08-01T13:32:12;12.50;;;7.50;;
52650;SDS011;38537;47.226;39.702;2022-08-01T13:35:06;8.90;;;7.20;;
52650;SDS011;38537;47.226;39.702;2022-08-01T13:37:35;13.05;;;8.18;;
52650;SDS011;38537;47.226;39.702;2022-08-01T13:40:08;10.77;;;7.70;;
52650;SDS011;38537;47.226;39.702;2022-08-01T13:42:37;12.75;;;7.78;;
52650;SDS011;38537;47.226;39.702;2022-08-01T13:45:05;10.60;;;8.00;;
52650;SDS011;38537;47.226;39.702;2022-08-01T13:47:43;13.30;;;7.80;;
52650;SDS011;38537;47.226;39.702;2022-08-01T13:50:32;13.18;;;8.20;;
52650;SDS011;38537;47.226;39.702;2022-08-01T13:53:00;12.18;;;7.97;;
52650;SDS011;38537;47.226;39.702;2022-08-01T13:55:28;13.02;;;8.20;;
52650;SDS011;38537;47.226;39.702;2022-08-01T13:58:00;9.27;;;8.20;;
52650;SDS011;38537;47.226;39.702;2022-08-01T14:00:28;14.80;;;8.07;;
52650;SDS011;38537;47.226;39.702;2022-08-01T14:02:56;10.23;;;7.35;;
52650;SDS011;38537;47.226;39.702;2022-08-01T14:05:23;11.05;;;8.10;;
52650;SDS011;38537;47.226;39.702;2022-08-01T14:07:51;11.65;;;7.80;;
52650;SDS011;38537;47.226;39.702;2022-08-01T14:10:23;9.60;;;7.80;;
52650;SDS011;38537;47.226;39.702;2022-08-01T14:12:51;10.50;;;7.43;;
52650;SDS011;38537;47.226;39.702;2022-08-01T14:15:22;9.48;;;8.00;;
52650;SDS011;38537;47.226;39.702;2022-08-01T14:18:08;10.65;;;7.70;;
52650;SDS011;38537;47.226;39.702;2022-08-01T14:20:37;9.35;;;7.45;;
52650;SDS011;38537;47.226;39.702;2022-08-01T14:23:05;9.27;;;7.63;;
52650;SDS011;38537;47.226;39.702;2022-08-01T14:25:38;8.52;;;7.40;;
52650;SDS011;38537;47.226;39.702;2022-08-01T14:28:27;8.82;;;7.30;;
52650;SDS011;38537;47.226;39.702;2022-08-01T14:30:57;10.55;;;7.30;;
52650;SDS011;38537;47.226;39.702;2022-08-01T14:33:52;10.88;;;7.82;;
52650;SDS011;38537;47.226;39.702;2022-08-01T14:36:19;11.35;;;7.97;;
52650;SDS011;38537;47.226;39.702;2022-08-01T14:38:57;7.97;;;7.15;;
52650;SDS011;38537;47.226;39.702;2022-08-01T14:41:27;8.23;;;7.38;;
52650;SDS011;38537;47.226;39.702;2022-08-01T14:43:57;9.70;;;7.70;;
52650;SDS011;38537;47.226;39.702;2022-08-01T14:46:26;10.48;;;7.55;;
52650;SDS011;38537;47.226;39.702;2022-08-01T14:48:57;12.60;;;7.93;;
52650;SDS011;38537;47.226;39.702;2022-08-01T14:51:24;10.35;;;7.35;;
52650;SDS011;38537;47.226;39.702;2022-08-01T14:53:52;9.45;;;7.78;;
52650;SDS011;38537;47.226;39.702;2022-08-01T14:56:19;11.07;;;8.00;;
52650;SDS011;38537;47.226;39.702;2022-08-01T14:58:47;9.88;;;7.75;;
52650;SDS011;38537;47.226;39.702;2022-08-01T15:01:14;10.38;;;8.15;;
52650;SDS011;38537;47.226;39.702;2022-08-01T15:03:42;11.05;;;7.53;;
52650;SDS011;38537;47.226;39.702;2022-08-01T15:06:09;8.80;;;7.90;;
52650;SDS011;38537;47.226;39.702;2022-08-01T15:08:38;10.80;;;7.88;;
52650;SDS011;38537;47.226;39.702;2022-08-01T15:11:06;9.30;;;7.22;;
52650;SDS011;38537;47.226;39.702;2022-08-01T15:13:34;9.25;;;7.65;;
52650;SDS011;38537;47.226;39.702;2022-08-01T15:16:08;13.15;;;7.88;;
52650;SDS011;38537;47.226;39.702;2022-08-01T15:18:37;11.80;;;8.02;;
52650;SDS011;38537;47.226;39.702;2022-08-01T15:21:05;10.82;;;7.68;;
52650;SDS011;38537;47.226;39.702;2022-08-01T15:23:32;9.10;;;7.40;;
52650;SDS011;38537;47.226;39.702;2022-08-01T15:25:59;11.13;;;7.82;;
52650;SDS011;38537;47.226;39.702;2022-08-01T15:28:27;9.85;;;8.32;;
52650;SDS011;38537;47.226;39.702;2022-08-01T15:30:55;10.32;;;8.10;;
52650;SDS011;38537;47.226;39.702;2022-08-01T15:33:24;9.32;;;7.80;;
52650;SDS011;38537;47.226;39.702;2022-08-01T15:35:51;8.45;;;7.65;;
52650;SDS011;38537;47.226;39.702;2022-08-01T15:38:19;14.00;;;8.40;;
52650;SDS011;38537;47.226;39.702;2022-08-01T15:40:48;12.35;;;8.63;;
52650;SDS011;38537;47.226;39.702;2022-08-01T15:43:15;11.80;;;7.90;;
52650;SDS011;38537;47.226;39.702;2022-08-01T15:45:42;11.32;;;8.45;;
52650;SDS011;38537;47.226;39.702;2022-08-01T15:48:15;8.95;;;7.95;;